Time;durP1;ratioP1;P1;durP2;ratioP2;P2;SDS_P1;SDS_P2;PMS_P1;PMS_P2;Temp;Humidity;BMP_temperature;BMP_pressure;BME280_temperature;BME280_humidity;BME280_pressure;Samples;Min_cycle;Max_cycle;Signal;HPM_P1;HPM_P2
2021/01/11 00:02:05;;;;;;;20.45;13.27;;;;;;;-4.95;82.06;99581.97;4947051;29;20196;-86
2021/01/11 00:04:32;;;;;;;19.50;12.82;;;;;;;-4.75;81.42;99575.88;4943252;28;20220;-86
2021/01/11 00:07:02;;;;;;;18.92;12.00;;;;;;;-4.53;79.76;99579.41;4928487;29;20231;-86
2021/01/11 00:09:28;;;;;;;21.38;12.50;;;;;;;-4.59;80.29;99587.25;4968869;28;20274;-86
2021/01/11 00:11:57;;;;;;;17.67;11.95;;;;;;;-4.46;79.95;99583.78;4932596;28;20227;-84
2021/01/11 00:14:23;;;;;;;20.58;13.20;;;;;;;-4.61;79.87;99584.63;4956969;28;20224;-86
2021/01/11 00:16:51;;;;;;;19.17;12.25;;;;;;;-4.62;80.15;99587.28;4959877;28;22260;-86
2021/01/11 00:19:21;;;;;;;18.15;11.38;;;;;;;-4.56;79.37;99587.28;4952537;28;20227;-86
2021/01/11 00:21:48;;;;;;;17.40;10.80;;;;;;;-4.49;79.11;99591.66;4969156;28;20231;-87
2021/01/11 00:24:15;;;;;;;15.80;11.18;;;;;;;-4.67;78.58;99596.88;4911968;28;20200;-87
2021/01/11 00:26:56;;;;;;;15.48;10.68;;;;;;;-4.72;79.16;99601.22;4946174;28;20200;-87
2021/01/11 00:29:23;;;;;;;17.50;10.75;;;;;;;-4.86;78.72;99598.59;4956419;28;20225;-86
2021/01/11 00:31:50;;;;;;;16.58;9.65;;;;;;;-4.89;79.30;99600.34;4947439;28;20243;-88
2021/01/11 00:34:17;;;;;;;14.40;9.82;;;;;;;-5.02;79.12;99606.38;4940270;28;20224;-86
2021/01/11 00:36:48;;;;;;;15.35;10.32;;;;;;;-5.06;79.60;99602.03;4917657;28;20235;-87
2021/01/11 00:39:14;;;;;;;14.35;8.88;;;;;;;-5.10;79.31;99602.88;4953637;28;20215;-88
2021/01/11 00:41:43;;;;;;;13.00;8.93;;;;;;;-5.16;79.49;99593.25;4953113;28;20215;-85
2021/01/11 00:44:10;;;;;;;12.25;8.40;;;;;;;-5.20;79.79;99593.22;4943608;28;20219;-87
2021/01/11 00:46:42;;;;;;;12.85;9.00;;;;;;;-5.20;80.13;99585.38;4944078;28;20599;-87
2021/01/11 00:49:10;;;;;;;14.00;8.15;;;;;;;-5.24;80.01;99584.50;4928317;28;20262;-86
2021/01/11 00:51:38;;;;;;;11.60;7.28;;;;;;;-5.23;79.89;99585.34;4943218;29;20228;-87
2021/01/11 00:54:06;;;;;;;12.68;8.30;;;;;;;-5.26;79.55;99583.59;4944007;28;20227;-84
2021/01/11 00:56:34;;;;;;;10.23;7.72;;;;;;;-5.29;79.69;99587.94;4965934;28;20260;-84
2021/01/11 00:59:03;;;;;;;10.57;6.90;;;;;;;-5.27;79.49;99583.59;4932908;29;20949;-85
2021/01/11 01:01:32;;;;;;;10.48;7.28;;;;;;;-5.29;79.89;99572.22;4949737;28;20219;-84
2021/01/11 01:04:00;;;;;;;11.13;7.72;;;;;;;-5.34;79.39;99564.34;4927397;29;20284;-85
2021/01/11 01:06:27;;;;;;;11.30;7.55;;;;;;;-5.37;79.38;99563.47;4957568;28;20250;-84
2021/01/11 01:08:53;;;;;;;11.52;7.40;;;;;;;-5.43;79.14;99577.44;4942798;28;20200;-84
2021/01/11 01:11:19;;;;;;;10.30;8.13;;;;;;;-5.41;79.42;99570.44;4973384;28;20228;-85
2021/01/11 01:13:48;;;;;;;12.48;7.97;;;;;;;-5.44;79.21;99569.53;4931880;29;20220;-85
2021/01/11 01:16:14;;;;;;;11.30;8.50;;;;;;;-5.44;79.51;99569.53;4945859;29;20220;-86
2021/01/11 01:18:41;;;;;;;12.40;8.60;;;;;;;-5.39;79.55;99573.06;4964105;28;20223;-83
2021/01/11 01:21:07;;;;;;;16.45;9.77;;;;;;;-5.40;79.08;99566.09;4945805;28;20761;-83
2021/01/11 01:23:33;;;;;;;12.48;8.75;;;;;;;-5.47;79.63;99572.13;4965235;28;20196;-83
2021/01/11 01:26:01;;;;;;;15.48;10.05;;;;;;;-5.50;79.81;99572.13;4956637;28;20242;-85
2021/01/11 01:28:27;;;;;;;16.40;9.43;;;;;;;-5.46;79.96;99571.28;4958523;28;20288;-85
2021/01/11 01:30:53;;;;;;;16.20;9.77;;;;;;;-5.46;80.17;99580.00;4973220;28;20231;-84
2021/01/11 01:33:22;;;;;;;18.80;10.90;;;;;;;-5.44;80.46;99590.50;4958018;28;20211;-84
2021/01/11 01:35:48;;;;;;;23.25;12.73;;;;;;;-5.42;80.22;99589.66;4986191;28;20264;-82
2021/01/11 01:38:15;;;;;;;17.88;11.50;;;;;;;-5.46;80.52;99589.63;4955176;28;20224;-84
2021/01/11 01:40:45;;;;;;;18.65;11.60;;;;;;;-5.39;80.30;99589.66;4970162;28;20237;-84
2021/01/11 01:43:12;;;;;;;18.70;11.13;;;;;;;-5.40;79.91;99593.13;4952378;29;20208;-85
2021/01/11 01:45:39;;;;;;;19.10;10.70;;;;;;;-5.44;80.30;99596.63;4951145;28;20224;-86
2021/01/11 01:48:06;;;;;;;23.98;12.52;;;;;;;-5.34;80.67;99606.28;4974207;28;20209;-85
2021/01/11 01:50:34;;;;;;;16.55;11.07;;;;;;;-4.82;78.48;99602.09;4950122;29;20227;-85
2021/01/11 01:53:01;;;;;;;14.95;11.30;;;;;;;-4.78;77.88;99619.56;4948421;28;20220;-85
2021/01/11 01:55:27;;;;;;;18.17;11.02;;;;;;;-4.77;77.42;99613.44;4963314;28;20924;-84
2021/01/11 01:57:58;;;;;;;16.65;9.05;;;;;;;-4.83;77.40;99627.44;4951995;29;20227;-82
2021/01/11 02:00:24;;;;;;;19.83;8.95;;;;;;;-4.93;76.50;99616.91;4940713;28;20250;-83
2021/01/11 02:02:50;;;;;;;14.80;9.73;;;;;;;-5.00;77.22;99609.91;4963959;28;20233;-80
2021/01/11 02:05:16;;;;;;;17.27;9.90;;;;;;;-4.95;77.29;99613.44;4954852;28;20959;-83
2021/01/11 02:07:58;;;;;;;13.20;9.23;;;;;;;-5.15;77.59;99620.31;4927531;29;20266;-85
2021/01/11 02:10:40;;;;;;;15.88;9.00;;;;;;;-5.21;77.40;99631.66;4964782;28;20224;-83
2021/01/11 02:13:29;;;;;;;15.73;9.57;;;;;;;-5.28;77.90;99623.75;4979994;28;20307;-85
2021/01/11 02:16:34;;;;;;;13.82;9.45;;;;;;;-5.30;78.32;99617.63;4967603;28;20239;-83
2021/01/11 02:19:16;;;;;;;13.80;9.18;;;;;;;-5.40;78.83;99614.09;4946679;28;20229;-84
2021/01/11 02:21:51;;;;;;;13.10;9.75;;;;;;;-5.40;79.07;99623.72;4944794;28;20235;-82
2021/01/11 02:25:02;;;;;;;21.20;12.93;;;;;;;-5.39;79.60;99625.47;4952091;28;20203;-84
2021/01/11 02:27:43;;;;;;;19.38;12.32;;;;;;;-5.40;79.74;99623.72;4954190;28;20243;-84
2021/01/11 02:30:29;;;;;;;16.42;10.43;;;;;;;-5.37;79.83;99618.47;4942538;29;20715;-84
2021/01/11 02:32:57;;;;;;;13.00;9.18;;;;;;;-5.40;79.30;99623.72;4943410;28;20214;-83
2021/01/11 02:35:25;;;;;;;13.73;9.07;;;;;;;-5.41;78.96;99622.84;4945917;28;20216;-85
2021/01/11 02:37:52;;;;;;;12.15;9.30;;;;;;;-5.42;79.00;99621.09;4960048;28;20238;-85
2021/01/11 02:40:18;;;;;;;13.93;9.23;;;;;;;-5.47;78.79;99620.19;4939409;28;20284;-85
2021/01/11 02:42:45;;;;;;;15.50;9.43;;;;;;;-5.55;78.57;99615.75;4969191;28;20255;-84
2021/01/11 02:45:12;;;;;;;13.82;8.52;;;;;;;-5.58;78.84;99614.00;4962998;28;20207;-84
2021/01/11 02:47:47;;;;;;;11.50;8.00;;;;;;;-5.50;78.27;99609.69;4938196;28;20176;-82
2021/01/11 02:50:20;;;;;;;11.70;8.63;;;;;;;-5.60;78.28;99605.28;4969631;28;20199;-82
2021/01/11 02:53:26;;;;;;;13.60;8.00;;;;;;;-5.70;78.48;99595.59;4960684;28;20271;-83
2021/01/11 02:56:01;;;;;;;11.48;7.90;;;;;;;-5.75;78.09;99606.91;4939179;28;20231;-84
2021/01/11 02:59:02;;;;;;;10.98;7.53;;;;;;;-5.82;78.38;99597.31;4944674;28;20239;-82
2021/01/11 03:01:37;;;;;;;11.02;7.38;;;;;;;-5.75;78.43;99588.59;4962837;28;20314;-84
2021/01/11 03:04:04;;;;;;;12.68;7.68;;;;;;;-5.79;78.61;99584.19;4949686;28;20222;-82
2021/01/11 03:06:33;;;;;;;13.15;7.82;;;;;;;-5.77;78.27;99579.88;4927594;29;20231;-84
2021/01/11 03:09:07;;;;;;;10.98;8.18;;;;;;;-5.85;78.57;99575.47;4931900;29;20192;-84
2021/01/11 03:11:35;;;;;;;11.70;7.60;;;;;;;-5.89;78.04;99573.69;4960256;28;20224;-85
2021/01/11 03:14:04;;;;;;;14.50;8.27;;;;;;;-5.88;78.64;99563.25;4963185;28;20318;-85
2021/01/11 03:16:31;;;;;;;11.77;8.02;;;;;;;-5.86;77.96;99564.13;4940282;29;22184;-84
2021/01/11 03:18:58;;;;;;;11.00;7.40;;;;;;;-5.83;77.72;99563.25;4955198;28;20227;-86
2021/01/11 03:21:24;;;;;;;14.82;8.43;;;;;;;-5.81;77.22;99567.63;4960308;28;20246;-84
2021/01/11 03:23:51;;;;;;;14.15;9.05;;;;;;;-5.91;77.96;99565.84;4934524;29;20200;-85
2021/01/11 03:26:24;;;;;;;14.77;9.10;;;;;;;-5.92;78.13;99565.84;4942061;28;20230;-85
2021/01/11 03:28:51;;;;;;;13.07;8.85;;;;;;;-5.95;78.18;99568.41;4941011;28;20223;-85
2021/01/11 03:31:18;;;;;;;16.25;9.45;;;;;;;-5.95;78.66;99569.31;4929902;29;20231;-83
2021/01/11 03:33:45;;;;;;;15.65;9.45;;;;;;;-5.93;78.87;99558.84;4954802;28;20219;-83
2021/01/11 03:36:12;;;;;;;13.45;9.07;;;;;;;-5.92;78.55;99548.38;4968359;28;20663;-84
2021/01/11 03:38:39;;;;;;;13.93;9.95;;;;;;;-5.41;76.88;99546.84;4969414;28;20279;-85
2021/01/11 03:41:09;;;;;;;13.25;8.52;;;;;;;-5.32;76.50;99553.88;4941304;28;20259;-84
2021/01/11 03:43:40;;;;;;;13.35;8.48;;;;;;;-5.35;75.58;99540.75;4972349;28;20762;-86
2021/01/11 03:46:11;;;;;;;16.60;9.63;;;;;;;-5.42;75.48;99554.69;4945182;28;20741;-84
2021/01/11 03:48:37;;;;;;;16.33;9.45;;;;;;;-5.42;76.34;99552.06;4960174;28;20228;-85
2021/01/11 03:51:03;;;;;;;14.40;9.05;;;;;;;-5.37;75.77;99560.84;4941547;28;20243;-85
2021/01/11 03:53:30;;;;;;;16.77;9.40;;;;;;;-5.39;76.04;99557.34;4977614;28;20204;-85
2021/01/11 03:55:56;;;;;;;12.15;9.05;;;;;;;-5.29;75.57;99544.28;4941083;28;20215;-85
2021/01/11 03:58:22;;;;;;;13.90;9.00;;;;;;;-5.43;75.89;99550.34;4940439;29;20227;-84
2021/01/11 04:00:49;;;;;;;12.20;8.35;;;;;;;-5.59;76.90;99561.63;4960786;28;20250;-84
2021/01/11 04:03:16;;;;;;;15.95;9.00;;;;;;;-5.65;77.06;99561.59;4984141;28;20311;-85
2021/01/11 04:05:44;;;;;;;15.52;10.45;;;;;;;-5.77;77.32;99564.16;4955228;28;20200;-85
2021/01/11 04:08:10;;;;;;;19.38;11.10;;;;;;;-5.81;77.53;99567.63;4950284;29;20224;-86
2021/01/11 04:10:37;;;;;;;18.90;12.23;;;;;;;-5.88;78.02;99570.19;4948206;28;20268;-83
2021/01/11 04:13:04;;;;;;;15.32;9.93;;;;;;;-5.56;76.84;99572.09;4930934;29;20204;-83
2021/01/11 04:15:31;;;;;;;18.73;9.38;;;;;;;-5.52;76.30;99572.13;4932084;28;20247;-83
2021/01/11 04:17:58;;;;;;;16.02;10.43;;;;;;;-5.69;76.83;99578.16;4949573;29;20734;-85
2021/01/11 04:20:25;;;;;;;14.50;9.13;;;;;;;-5.75;76.81;99572.88;4968308;28;20294;-85
2021/01/11 04:22:52;;;;;;;17.02;10.05;;;;;;;-5.55;77.07;99571.22;4937981;28;20244;-84
2021/01/11 04:25:18;;;;;;;16.58;10.57;;;;;;;-5.67;76.75;99579.03;4988570;28;20212;-83
2021/01/11 04:27:44;;;;;;;17.23;10.18;;;;;;;-5.76;76.93;99581.59;4986040;28;20208;-82
2021/01/11 04:30:11;;;;;;;16.95;9.20;;;;;;;-5.50;75.78;99580.00;4940082;28;20204;-82
2021/01/11 04:32:40;;;;;;;15.43;9.25;;;;;;;-5.71;76.39;99580.75;4975069;28;20192;-83
2021/01/11 04:35:08;;;;;;;14.27;9.15;;;;;;;-5.40;75.88;99584.41;4942273;28;20220;-82
2021/01/11 04:37:37;;;;;;;12.77;8.90;;;;;;;-5.48;76.14;99578.25;4953228;28;20316;-83
2021/01/11 04:40:05;;;;;;;12.98;7.82;;;;;;;-5.65;76.05;99572.94;4961074;28;20299;-83
2021/01/11 04:42:40;;;;;;;9.43;7.78;;;;;;;-5.73;76.72;99579.00;4980392;28;20250;-84
2021/01/11 04:45:08;;;;;;;13.68;8.27;;;;;;;-5.75;76.38;99581.63;4930854;28;20230;-84
2021/01/11 04:47:35;;;;;;;13.07;8.68;;;;;;;-5.80;77.05;99574.63;4934439;29;20196;-84
2021/01/11 04:50:03;;;;;;;15.73;8.60;;;;;;;-5.91;76.77;99581.56;4946576;29;20227;-82
2021/01/11 04:52:31;;;;;;;14.38;8.60;;;;;;;-5.97;77.51;99571.06;4974985;28;20232;-85
2021/01/11 04:55:07;;;;;;;16.67;8.93;;;;;;;-6.01;77.71;99579.75;4942460;28;20260;-85
2021/01/11 04:57:36;;;;;;;11.75;7.35;;;;;;;-5.98;77.33;99568.41;4947172;28;20236;-85
2021/01/11 05:00:12;;;;;;;10.73;7.43;;;;;;;-6.00;77.16;99573.63;4944039;28;20278;-84
2021/01/11 05:02:42;;;;;;;12.55;7.95;;;;;;;-5.95;77.33;99576.28;4956377;28;20199;-85
2021/01/11 05:05:10;;;;;;;9.18;7.30;;;;;;;-6.03;77.33;99578.84;4940510;28;20220;-86
2021/01/11 05:07:37;;;;;;;14.27;7.28;;;;;;;-6.08;76.95;99577.94;4940300;28;20224;-84
2021/01/11 05:10:06;;;;;;;11.98;7.55;;;;;;;-6.08;77.94;99572.72;4939450;28;20232;-83
2021/01/11 05:12:33;;;;;;;13.68;8.13;;;;;;;-6.08;77.91;99566.59;4916293;28;20306;-84
2021/01/11 05:15:21;;;;;;;9.98;7.25;;;;;;;-6.09;77.88;99560.50;4940780;29;20204;-85
2021/01/11 05:17:47;;;;;;;13.18;7.10;;;;;;;-6.10;77.29;99550.91;4964503;28;20295;-85
2021/01/11 05:20:15;;;;;;;9.40;7.60;;;;;;;-6.07;77.26;99558.75;4927359;29;20310;-83
2021/01/11 05:22:48;;;;;;;12.30;7.93;;;;;;;-6.20;77.44;99563.88;4959621;28;20224;-85
2021/01/11 05:25:16;;;;;;;10.10;6.60;;;;;;;-6.21;77.24;99554.28;4934356;28;20248;-82
2021/01/11 05:27:44;;;;;;;13.52;9.05;;;;;;;-6.27;77.64;99554.25;4940498;28;20224;-84
2021/01/11 05:30:28;;;;;;;16.77;8.77;;;;;;;-6.32;77.75;99556.84;4942212;28;20216;-86
2021/01/11 05:32:55;;;;;;;12.68;8.70;;;;;;;-6.31;78.09;99552.50;4952143;29;20211;-86
2021/01/11 05:35:23;;;;;;;17.90;9.60;;;;;;;-6.29;78.32;99545.50;4976305;28;20323;-85
2021/01/11 05:37:51;;;;;;;19.52;10.23;;;;;;;-6.10;77.79;99545.66;4925894;29;20330;-84
2021/01/11 05:40:22;;;;;;;18.02;10.27;;;;;;;-6.17;77.52;99543.00;4939316;28;20228;-86
2021/01/11 05:42:53;;;;;;;19.25;10.52;;;;;;;-6.12;78.11;99536.06;4949763;29;20232;-84
2021/01/11 05:45:28;;;;;;;19.33;11.00;;;;;;;-6.10;77.23;99540.44;4932723;28;20201;-84
2021/01/11 05:48:04;;;;;;;20.20;13.85;;;;;;;-6.14;77.17;99536.03;4951896;29;20230;-83
2021/01/11 05:50:33;;;;;;;15.07;8.80;;;;;;;-6.17;77.28;99530.78;4960818;28;20235;-83
2021/01/11 05:52:59;;;;;;;13.60;8.13;;;;;;;-6.15;76.91;99538.63;4950160;28;20216;-83
2021/01/11 05:55:30;;;;;;;15.82;10.32;;;;;;;-6.19;77.33;99536.88;4958018;28;20235;-87
2021/01/11 05:58:03;;;;;;;18.75;9.65;;;;;;;-6.16;77.17;99531.66;4941292;28;20239;-87
2021/01/11 06:00:35;;;;;;;13.95;8.68;;;;;;;-6.22;77.43;99531.59;4975677;28;20240;-86
2021/01/11 06:03:03;;;;;;;14.30;8.77;;;;;;;-6.14;77.54;99543.00;4954707;28;20231;-84
2021/01/11 06:05:30;;;;;;;12.82;8.10;;;;;;;-6.11;77.54;99551.72;4951329;29;20216;-86
2021/01/11 06:08:03;;;;;;;14.70;9.43;;;;;;;-6.19;77.38;99547.34;4949038;28;20247;-85
2021/01/11 06:10:30;;;;;;;12.35;9.18;;;;;;;-6.24;77.81;99546.44;4951629;28;20251;-86
2021/01/11 06:12:57;;;;;;;12.93;8.93;;;;;;;-6.00;77.13;99538.75;4960140;28;20243;-84
2021/01/11 06:15:25;;;;;;;14.80;8.90;;;;;;;-6.06;77.24;99534.31;4969904;28;20287;-83
2021/01/11 06:17:53;;;;;;;11.95;8.63;;;;;;;-6.03;77.06;99542.22;4967612;28;20202;-85
2021/01/11 06:20:23;;;;;;;12.57;8.30;;;;;;;-5.92;76.77;99542.28;4958683;28;20227;-85
2021/01/11 06:22:49;;;;;;;16.02;8.93;;;;;;;-5.59;75.12;99538.06;4925943;28;20259;-85
2021/01/11 06:25:25;;;;;;;12.40;9.02;;;;;;;-5.69;75.55;99542.38;4925447;29;20306;-85
2021/01/11 06:27:58;;;;;;;11.07;7.20;;;;;;;-5.71;75.51;99538.00;4940594;28;20324;-84
2021/01/11 06:30:33;;;;;;;12.98;8.68;;;;;;;-5.55;75.39;99555.50;4938777;29;20233;-85
2021/01/11 06:33:06;;;;;;;12.40;8.38;;;;;;;-5.44;74.58;99551.22;4942221;29;20199;-85
2021/01/11 06:35:39;;;;;;;13.05;8.25;;;;;;;-5.53;74.88;99554.66;4958921;29;20247;-84
2021/01/11 06:38:06;;;;;;;16.00;8.60;;;;;;;-5.58;75.45;99552.91;4982212;28;20238;-83
2021/01/11 06:40:33;;;;;;;15.57;9.57;;;;;;;-5.75;76.06;99554.56;4946264;28;20232;-84
2021/01/11 06:43:02;;;;;;;14.63;8.43;;;;;;;-5.48;75.74;99557.28;4944322;28;20238;-84
2021/01/11 06:45:39;;;;;;;15.55;8.80;;;;;;;-5.62;75.94;99566.84;4927689;28;20227;-84
2021/01/11 06:48:08;;;;;;;16.92;9.60;;;;;;;-5.59;75.76;99564.25;4937037;28;20214;-85
2021/01/11 06:50:34;;;;;;;16.17;9.50;;;;;;;-5.62;75.54;99566.84;4956178;28;20220;-85
2021/01/11 06:53:04;;;;;;;14.32;9.35;;;;;;;-5.70;76.07;99561.53;4960160;28;20216;-83
2021/01/11 06:55:34;;;;;;;13.00;8.68;;;;;;;-5.83;76.59;99568.50;4946774;29;20295;-85
2021/01/11 06:58:01;;;;;;;15.00;9.45;;;;;;;-5.82;76.32;99563.28;4944092;28;20231;-84
2021/01/11 07:00:39;;;;;;;15.77;10.40;;;;;;;-5.89;76.66;99564.13;4937814;29;20231;-83
2021/01/11 07:03:07;;;;;;;16.65;10.07;;;;;;;-5.93;76.85;99562.34;4987743;28;20204;-84
2021/01/11 07:05:33;;;;;;;17.00;11.10;;;;;;;-5.94;77.30;99560.59;4962086;28;20188;-83
2021/01/11 07:08:03;;;;;;;16.15;10.05;;;;;;;-5.98;77.84;99556.19;4951560;28;20244;-83
2021/01/11 07:10:30;;;;;;;16.05;9.38;;;;;;;-5.95;77.71;99552.72;4958074;28;20219;-83
2021/01/11 07:13:19;;;;;;;21.50;11.63;;;;;;;-5.93;77.67;99549.25;4932553;28;20232;-84
2021/01/11 07:16:05;;;;;;;19.95;11.80;;;;;;;-5.94;77.76;99544.88;4978437;28;20227;-84
2021/01/11 07:18:38;;;;;;;17.45;10.98;;;;;;;-5.94;77.29;99554.50;4950702;29;20270;-85
2021/01/11 07:21:23;;;;;;;20.90;11.95;;;;;;;-5.92;77.68;99557.97;4957776;28;20224;-85
2021/01/11 07:23:50;;;;;;;17.75;12.77;;;;;;;-5.94;76.90;99564.97;4952426;28;20204;-85
2021/01/11 07:26:20;;;;;;;21.50;14.27;;;;;;;-5.96;77.02;99557.09;4959131;28;20236;-85
2021/01/11 07:29:08;;;;;;;25.15;15.10;;;;;;;-5.95;76.59;99552.72;4929074;29;20220;-83
2021/01/11 07:31:46;;;;;;;26.98;14.73;;;;;;;-5.99;76.94;99546.59;4958501;28;20736;-86
2021/01/11 07:34:16;;;;;;;12.52;10.23;;;;;;;-6.06;76.46;99543.94;4975222;28;20714;-86
2021/01/11 07:36:49;;;;;;;12.60;9.20;;;;;;;-6.09;76.32;99555.25;4953401;28;20237;-86
2021/01/11 07:39:24;;;;;;;19.42;13.02;;;;;;;-6.07;76.76;99556.13;4946571;28;20220;-85
2021/01/11 07:41:54;;;;;;;18.85;12.90;;;;;;;-6.14;76.27;99543.88;4965610;28;20227;-84
2021/01/11 07:44:31;;;;;;;16.42;11.93;;;;;;;-6.17;76.36;99543.88;4916636;29;20230;-83
2021/01/11 07:47:02;;;;;;;15.93;10.60;;;;;;;-6.19;76.31;99542.13;4949191;29;21995;-86
2021/01/11 07:49:32;;;;;;;18.88;12.10;;;;;;;-6.20;76.75;99546.47;4923834;28;21484;-84
2021/01/11 07:52:05;;;;;;;18.05;11.88;;;;;;;-6.19;77.08;99558.66;4954160;28;20326;-84
2021/01/11 07:54:31;;;;;;;16.95;11.20;;;;;;;-6.14;77.20;99572.66;4932436;28;20233;-84
2021/01/11 07:56:58;;;;;;;14.25;9.90;;;;;;;-6.08;76.88;99572.72;4952129;28;20208;-83
2021/01/11 07:59:24;;;;;;;17.17;10.07;;;;;;;-5.97;77.15;99578.91;4935110;28;20228;-83
2021/01/11 08:01:51;;;;;;;13.98;9.38;;;;;;;-5.97;77.18;99575.41;4967657;28;20220;-86
2021/01/11 08:04:18;;;;;;;16.75;9.80;;;;;;;-5.88;77.36;99565.84;4932124;28;20826;-84
2021/01/11 08:06:50;;;;;;;15.90;10.95;;;;;;;-5.69;77.41;99568.56;4926513;29;20637;-84
2021/01/11 08:09:18;;;;;;;31.25;11.25;;;;;;;-5.30;75.08;99567.84;4960319;28;20196;-84
2021/01/11 08:11:46;;;;;;;18.25;9.50;;;;;;;-5.39;75.18;99573.94;4962332;28;20231;-84
2021/01/11 08:14:13;;;;;;;17.15;11.27;;;;;;;-5.29;74.82;99574.84;4944266;29;20223;-84
2021/01/11 08:16:49;;;;;;;16.13;10.02;;;;;;;-5.25;74.48;99566.13;4957895;28;20231;-85
2021/01/11 08:19:15;;;;;;;15.80;10.48;;;;;;;-5.20;74.23;99559.16;4960317;29;20281;-85
2021/01/11 08:21:42;;;;;;;15.55;9.23;;;;;;;-5.30;74.26;99562.59;4930738;28;20220;-83
2021/01/11 08:24:10;;;;;;;13.40;8.60;;;;;;;-5.21;75.14;99571.38;4928622;28;20204;-85
2021/01/11 08:26:47;;;;;;;11.00;7.85;;;;;;;-5.11;74.29;99569.66;4958408;28;20188;-86
2021/01/11 08:29:15;;;;;;;12.23;8.50;;;;;;;-5.13;74.82;99571.41;4938333;29;20216;-87
2021/01/11 08:31:45;;;;;;;14.60;9.30;;;;;;;-5.00;74.58;99562.72;4961487;28;20227;-83
2021/01/11 08:34:12;;;;;;;19.90;11.00;;;;;;;-4.99;74.88;99553.97;4968334;28;20215;-82
2021/01/11 08:36:39;;;;;;;20.50;14.43;;;;;;;-4.75;74.78;99556.66;4959516;28;20260;-81
2021/01/11 08:39:12;;;;;;;15.45;10.27;;;;;;;-4.74;74.74;99553.16;4957713;28;20212;-84
2021/01/11 08:41:50;;;;;;;14.82;9.93;;;;;;;-4.64;74.25;99550.53;4946094;29;20234;-85
2021/01/11 08:44:30;;;;;;;15.73;10.60;;;;;;;-4.58;74.10;99552.28;4958894;28;20219;-86
2021/01/11 08:47:04;;;;;;;17.65;10.18;;;;;;;-4.52;74.27;99557.53;4961107;28;20223;-84
2021/01/11 08:49:31;;;;;;;16.17;11.02;;;;;;;-4.52;74.17;99553.16;4936836;29;20224;-85
2021/01/11 08:52:12;;;;;;;18.95;11.65;;;;;;;-4.41;74.35;99553.16;4954203;28;20243;-85
2021/01/11 08:54:39;;;;;;;18.08;11.20;;;;;;;-4.41;74.08;99540.94;4970775;28;20258;-84
2021/01/11 08:57:10;;;;;;;17.40;10.82;;;;;;;-4.41;73.98;99547.91;4959876;28;20252;-87
2021/01/11 08:59:45;;;;;;;27.50;19.40;;;;;;;-4.28;73.94;99563.66;4949074;28;20228;-84
2021/01/11 09:02:21;;;;;;;17.38;11.20;;;;;;;-4.19;73.92;99574.16;4934574;28;20291;-85
2021/01/11 09:04:48;;;;;;;19.52;11.20;;;;;;;-4.13;73.96;99566.28;4945084;28;20232;-86
2021/01/11 09:07:24;;;;;;;18.27;11.38;;;;;;;-3.97;73.54;99580.28;4956998;28;20229;-85
2021/01/11 09:09:51;;;;;;;19.58;11.05;;;;;;;-3.92;73.35;99568.88;4958905;28;20231;-83
2021/01/11 09:12:27;;;;;;;13.60;10.32;;;;;;;-3.72;72.23;99564.44;4964159;28;20370;-83
2021/01/11 09:14:54;;;;;;;14.68;11.57;;;;;;;-3.67;72.67;99562.69;4942900;29;20200;-83
2021/01/11 09:17:26;;;;;;;15.52;10.20;;;;;;;-3.43;73.06;99564.34;4967033;28;20243;-82
2021/01/11 09:20:04;;;;;;;22.48;13.55;;;;;;;-3.33;72.61;99571.34;4973452;28;20224;-83
2021/01/11 09:22:34;;;;;;;17.85;12.18;;;;;;;-3.31;71.99;99569.56;4935146;28;20228;-86
2021/01/11 09:25:02;;;;;;;19.67;12.60;;;;;;;-3.25;72.25;99572.19;4963874;28;20227;-86
2021/01/11 09:27:29;;;;;;;23.48;15.80;;;;;;;-3.28;72.18;99572.22;4927379;28;20366;-85
2021/01/11 09:29:55;;;;;;;21.60;14.50;;;;;;;-3.19;72.14;99578.31;4930454;29;20224;-86
2021/01/11 09:32:21;;;;;;;19.10;12.32;;;;;;;-3.10;72.05;99577.38;4964708;28;20249;-87
2021/01/11 09:34:48;;;;;;;24.67;15.23;;;;;;;-3.12;72.14;99576.50;4968663;28;20713;-87
2021/01/11 09:37:16;;;;;;;24.05;14.32;;;;;;;-2.69;71.09;99573.63;4931509;29;20604;-84
2021/01/11 09:39:42;;;;;;;28.48;17.35;;;;;;;-2.57;70.88;99578.81;4941634;28;20232;-83
2021/01/11 09:42:52;;;;;;;23.42;14.18;;;;;;;-2.47;71.09;99584.91;4929160;29;20224;-88
2021/01/11 10:50:28;;;;;;;24.88;17.77;;;;;;;0.28;67.32;99533.81;4888762;29;20219;-84
2021/01/11 10:52:55;;;;;;;21.90;14.60;;;;;;;0.72;65.33;99533.00;4926051;28;20809;-83
2021/01/11 10:55:21;;;;;;;20.33;13.25;;;;;;;0.55;65.54;99533.31;4923868;29;20232;-83
2021/01/11 10:57:48;;;;;;;18.73;12.82;;;;;;;0.60;65.88;99547.31;4916399;29;20279;-84
2021/01/11 11:00:18;;;;;;;28.00;17.15;;;;;;;0.81;65.83;99544.25;4925990;28;20260;-81
2021/01/11 11:02:44;;;;;;;22.15;14.18;;;;;;;0.59;65.70;99537.63;4944411;29;20201;-83
2021/01/11 11:05:11;;;;;;;20.85;14.88;;;;;;;0.65;66.00;99542.81;4929337;29;20231;-83
2021/01/11 11:07:38;;;;;;;20.95;13.88;;;;;;;0.83;65.80;99529.22;4931873;28;20263;-82
2021/01/11 11:10:08;;;;;;;22.77;13.40;;;;;;;0.87;66.07;99527.38;4920342;29;20226;-82
2021/01/11 11:12:35;;;;;;;19.83;12.70;;;;;;;1.01;66.42;99523.53;4930542;29;20232;-81
2021/01/11 11:15:04;;;;;;;20.13;14.05;;;;;;;1.19;65.81;99517.84;4933292;29;20261;-79
2021/01/11 11:17:30;;;;;;;19.23;13.30;;;;;;;1.15;65.76;99517.91;4943822;29;20209;-78
2021/01/11 11:19:58;;;;;;;21.75;14.18;;;;;;;1.19;65.89;99501.06;4934749;29;20319;-78
2021/01/11 11:22:33;;;;;;;19.58;12.50;;;;;;;0.95;65.88;99497.19;4917175;29;20231;-85
2021/01/11 11:25:14;;;;;;;21.65;13.23;;;;;;;1.08;65.06;99493.38;4919559;29;20227;-81
2021/01/11 11:27:41;;;;;;;18.23;12.15;;;;;;;1.27;65.05;99491.16;4900061;29;20241;-80
2021/01/11 11:30:08;;;;;;;20.10;14.18;;;;;;;1.44;64.40;99494.31;4941385;28;20225;-83
2021/01/11 11:32:35;;;;;;;20.45;13.27;;;;;;;1.45;64.24;99485.44;4931871;29;20201;-82
2021/01/11 11:35:05;;;;;;;21.88;13.27;;;;;;;1.48;64.50;99483.59;4903487;28;20250;-83
2021/01/11 11:37:36;;;;;;;20.35;12.93;;;;;;;1.38;64.42;99475.91;4904989;29;20244;-82
2021/01/11 11:40:05;;;;;;;22.77;14.25;;;;;;;1.64;64.73;99469.06;4898225;29;20228;-83
2021/01/11 11:42:34;;;;;;;19.63;13.52;;;;;;;1.80;63.97;99454.50;4905140;28;20241;-81
2021/01/11 11:45:08;;;;;;;16.52;12.38;;;;;;;1.89;63.68;99459.59;4941576;28;20199;-81
2021/01/11 11:47:44;;;;;;;23.10;13.43;;;;;;;1.96;63.73;99458.53;4924141;29;20310;-84
2021/01/11 11:50:13;;;;;;;16.52;12.38;;;;;;;1.97;63.20;99452.31;4919381;29;20240;-81
2021/01/11 11:52:43;;;;;;;18.33;13.05;;;;;;;2.21;62.67;99456.97;4932380;28;20227;-77
2021/01/11 11:55:12;;;;;;;19.33;12.40;;;;;;;2.16;62.72;99450.91;4935945;28;20224;-78
2021/01/11 11:57:42;;;;;;;20.42;13.48;;;;;;;2.17;62.18;99446.44;4936052;28;20296;-83
2021/01/11 12:00:16;;;;;;;16.90;11.38;;;;;;;2.35;62.22;99440.66;4925893;28;20232;-80
2021/01/11 12:02:47;;;;;;;19.10;11.75;;;;;;;2.44;61.52;99438.59;4913148;29;20196;-82
2021/01/11 12:05:19;;;;;;;16.80;10.70;;;;;;;2.41;61.78;99437.81;4897497;29;20616;-82
2021/01/11 12:07:52;;;;;;;13.65;10.70;;;;;;;2.50;61.13;99427.81;4919589;29;20216;-83
2021/01/11 12:10:28;;;;;;;17.05;11.30;;;;;;;2.53;60.77;99427.75;4889928;29;20229;-79
2021/01/11 12:12:59;;;;;;;17.30;11.88;;;;;;;2.55;60.58;99419.72;4911631;28;20306;-83
2021/01/11 12:15:25;;;;;;;18.80;12.07;;;;;;;2.76;59.97;99419.94;4921768;29;20232;-82
2021/01/11 12:17:52;;;;;;;15.73;10.95;;;;;;;2.67;59.51;99414.03;4916320;29;20295;-82
2021/01/11 12:20:19;;;;;;;17.50;11.57;;;;;;;2.65;59.58;99413.22;4914803;29;20288;-81
2021/01/11 12:22:45;;;;;;;18.17;11.00;;;;;;;2.64;59.32;99409.69;4933005;28;20247;-81
2021/01/11 12:25:12;;;;;;;14.98;10.93;;;;;;;2.63;59.25;99405.31;4922101;29;20394;-79
2021/01/11 12:27:39;;;;;;;14.15;10.00;;;;;;;2.53;59.00;99398.53;4931616;29;20233;-80
2021/01/11 12:30:06;;;;;;;13.82;10.18;;;;;;;2.75;58.97;99393.44;4904986;28;20196;-82
2021/01/11 12:32:32;;;;;;;25.48;11.13;;;;;;;2.79;58.17;99390.66;4924256;29;20203;-83
2021/01/11 12:34:58;;;;;;;14.55;9.95;;;;;;;2.99;57.60;99388.25;4935766;28;20211;-84
2021/01/11 12:37:26;;;;;;;12.90;10.57;;;;;;;2.97;56.80;99392.72;4927364;28;20240;-84
2021/01/11 12:40:18;;;;;;;11.67;8.57;;;;;;;2.90;55.86;99388.53;5075410;27;774588;-82
2021/01/11 12:42:59;;;;;;;11.73;7.43;;;;;;;2.98;54.91;99378.56;5048639;28;20219;-84